Latest Coastal Weather Observations for Bairnsdale

IDV60701

Issued at 5:32 am EDT Tuesday 6 December 2016 (issued every 10 minutes, with the page automatically refreshed every 10 minutes)

About coastal observations | Map of coastal stations | Coastal observations for VIC | Marine services | Other Formats
Station Details ID: 085279 Name: BAIRNSDALE AIRPORT Lat: -37.88 Lon: 147.57 Height: 49.4 m
Data from the previous 72 hours. | See also: Recent months at Bairnsdale
Date/Time
EDT
Temp
°C
Wind Pressure Rain since
9am
mm
Weather Cloud Vis
km
Sea
Height
m
Swell
Dir  Spd
kts
Gust
kts
hPa Trend Height
m
Period
s
Dir
06/05:30am 14.8 SSE 5 6 1011.5 - 0.0 - Cloudy 10 - - - -
06/05:00am 15.0 SSE 5 7 1011.4 - 0.0 - Partly cloudy 10 - - - -
06/04:30am 15.1 SSE 6 8 1010.7 - 0.0 - Cloudy 10 - - - -
06/04:00am 15.1 SSE 6 7 1011.0 - 0.0 - - 10 - - - -
06/03:30am 15.1 SSE 5 6 1011.3 - 0.0 - - 10 - - - -
06/03:00am 15.0 SE 5 6 1011.2 - 0.0 - Mostly cloudy 10 - - - -
06/02:30am 15.1 SE 4 5 1011.9 - 0.0 - Cloudy 10 - - - -
06/02:00am 15.2 ESE 4 5 1012.3 - 0.0 - Cloudy 10 - - - -
06/01:30am 15.2 SE 5 6 1012.7 - 0.0 - Cloudy 10 - - - -
06/01:00am 15.3 SE 4 5 1012.7 - 0.0 - Cloudy 10 - - - -
06/12:30am 15.6 SSE 5 6 1013.0 - 0.0 - Cloudy 10 - - - -
06/12:00am 15.6 E 4 5 1013.2 - 0.0 - Cloudy 10 - - - -
 
Date/Time
EDT
Temp
°C
Wind Pressure Rain since
9am
mm
Weather Cloud Vis
km
Sea
Height
m
Swell
Dir  Spd
kts
Gust
kts
hPa Trend Height
m
Period
s
Dir
05/11:30pm 15.4 ENE 4 6 1013.9 - 0.0 - Cloudy 10 - - - -
05/11:00pm 15.2 NE 1 4 1015.0 - 0.0 - Partly cloudy 10 - - - -
05/10:30pm 14.6 S 3 3 1015.0 - 0.0 - Partly cloudy 10 - - - -
05/10:00pm 15.3 ENE 4 6 1014.1 - 0.0 - Partly cloudy 10 - - - -
05/09:30pm 15.5 ENE 4 5 1014.1 - 0.0 - Cloudy 10 - - - -
05/09:00pm 16.1 E 4 6 1014.1 - 0.0 - Cloudy 10 - - - -
05/08:30pm 16.1 E 4 5 1014.0 - 0.0 - Cloudy 10 - - - -
05/08:00pm 16.3 E 6 7 1013.9 - 0.0 - Cloudy 10 - - - -
05/07:30pm 16.5 ESE 6 9 1013.9 - 0.0 - Cloudy 10 - - - -
05/07:00pm 16.8 ESE 7 10 1013.4 - 0.0 - Cloudy 10 - - - -
05/06:30pm 17.1 SE 8 11 1013.1 - 0.0 - Cloudy 10 - - - -
05/06:00pm 17.4 SSE 8 11 1012.9 - 0.0 - Cloudy 10 - - - -
05/05:30pm 17.7 SSE 7 9 1012.7 - 0.0 - Cloudy 10 - - - -
05/05:00pm 17.7 SSE 8 11 1012.0 - 0.0 - Cloudy 10 - - - -
05/04:30pm 17.8 SSE 7 10 1011.6 - 0.0 - Cloudy 10 - - - -
05/04:00pm 18.2 SSE 8 11 1011.6 - 0.0 - Cloudy 10 - - - -
05/03:30pm 18.2 SSE 8 10 1011.8 - 0.0 - Cloudy 10 - - - -
05/03:00pm 18.2 SSE 8 10 1011.7 - 0.0 - Cloudy 10 - - - -
05/02:30pm 18.1 SSE 7 9 1011.4 - 0.0 - Cloudy 10 - - - -
05/02:00pm 18.6 SSE 8 11 1011.3 - 0.0 - Cloudy 10 - - - -
05/01:30pm 18.3 SE 10 12 1011.1 - 0.0 - Cloudy 10 - - - -
05/01:00pm 18.6 SSE 11 14 1010.9 - 0.0 - Cloudy 10 - - - -
05/12:30pm 18.8 SSE 10 13 1010.8 - 0.0 - Cloudy 10 - - - -
05/12:00pm 19.7 WSW 8 11 1010.5 - 0.0 - Cloudy 10 - - - -
05/11:30am 19.9 W 10 13 1010.5 - 0.0 - Cloudy 10 - - - -
05/11:00am 19.8 W 11 16 1010.2 - 0.0 - Cloudy 10 - - - -
05/10:30am 20.0 WSW 13 18 1010.0 - 0.0 - Cloudy 10 - - - -
05/10:00am 21.2 SW 10 15 1009.4 - 0.0 - Partly cloudy 10 - - - -
05/09:30am 21.1 SW 11 16 1009.3 - 0.0 - Partly cloudy 10 - - - -
05/09:00am 20.7 SSW 18 22 1008.5 - 0.2 - - 10 - - - -
05/08:30am 19.8 SSW 19 25 1007.8 - 0.2 - Partly cloudy 10 - - - -
05/08:00am 21.1 S 20 25 1007.0 - 0.2 - Partly cloudy 10 - - - -
05/07:51am 22.2 SSW 10 25 1006.4 - 0.2 - Partly cloudy 10 - - - -
05/07:30am 26.0 SW 5 6 1005.7 - 0.2 - Partly cloudy 10 - - - -
05/07:00am 22.6 WSW 4 6 1005.2 - 0.2 - - 10 - - - -
05/06:30am 21.0 SW 6 8 1004.7 - 0.2 - - 10 - - - -
05/06:00am 22.2 NNW 6 7 1004.3 - 0.2 - Partly cloudy 10 - - - -
05/05:30am 23.1 NNW 6 8 1003.8 - 0.2 - Partly cloudy 10 - - - -
05/05:00am 23.0 NNW 5 9 1003.3 - 0.2 - Partly cloudy 10 - - - -
05/04:30am 21.4 NNE 6 8 1003.3 - 0.2 - - 10 - - - -
05/04:00am 21.0 NNE 6 8 1003.3 - 0.2 - - 10 - - - -
05/03:30am 20.8 NE 6 7 1003.3 - 0.2 - Partly cloudy 10 - - - -
05/03:00am 20.8 NE 5 7 1003.8 - 0.2 - Partly cloudy 10 - - - -
05/02:30am 21.0 NNE 6 7 1004.3 - 0.2 - Partly cloudy 10 - - - -
05/02:00am 21.2 NNE 5 7 1004.7 - 0.2 - Cloudy 10 - - - -
05/01:30am 21.2 NE 6 7 1005.2 - 0.2 - Cloudy 10 - - - -
05/01:00am 21.0 ENE 4 5 1005.7 - 0.2 - Cloudy 10 - - - -
05/12:30am 22.7 N 6 7 1006.2 - 0.2 - Cloudy 10 - - - -
05/12:00am 22.5 N 6 8 1006.6 - 0.2 - Cloudy 10 - - - -
 
Date/Time
EDT
Temp
°C
Wind Pressure Rain since
9am
mm
Weather Cloud Vis
km
Sea
Height
m
Swell
Dir  Spd
kts
Gust
kts
hPa Trend Height
m
Period
s
Dir
04/11:30pm 22.6 NNE 5 6 1006.9 - 0.2 - Cloudy 10 - - - -
04/11:00pm 22.1 N 5 7 1007.0 - 0.2 - Cloudy 10 - - - -
04/10:30pm 20.6 NW 3 4 1007.3 - 0.2 - Partly cloudy 10 - - - -
04/10:00pm 21.2 NW 4 5 1007.4 - 0.2 - Partly cloudy 10 - - - -
04/09:30pm 21.2 NW 5 7 1007.5 - 0.2 - Cloudy 10 - - - -
04/09:00pm 22.5 WNW 11 16 1007.9 - 0.0 - Cloudy 10 - - - -
04/08:30pm 25.2 W 12 21 1007.7 - 0.0 - Cloudy 10 - - - -
04/08:00pm 26.0 N 8 14 1006.1 - 0.0 - Cloudy 10 - - - -
04/07:30pm 25.5 E 5 6 1005.7 - 0.0 - Cloudy 10 - - - -
04/07:00pm 26.4 E 8 10 1005.2 - 0.0 - Cloudy 10 - - - -
04/06:30pm 27.1 E 10 13 1005.2 - 0.0 - Partly cloudy 10 - - - -
04/06:00pm 27.4 E 11 14 1005.4 - 0.0 - Mostly clear 10 - - - -
04/05:30pm 27.8 E 12 15 1005.8 - 0.0 - Partly cloudy 10 - - - -
04/05:00pm 28.1 E 11 15 1006.4 - 0.0 - - 10 - - - -
04/04:30pm 28.7 E 12 15 1006.7 - 0.0 - - 10 - - - -
04/04:00pm 28.8 E 9 15 1007.2 - 0.0 - - 10 - - - -
04/03:30pm 26.8 ESE 7 9 1007.6 - 0.0 - Partly cloudy 10 - - - -
04/03:00pm 26.8 ESE 7 12 1007.9 - 0.0 - - 10 - - - -
04/02:30pm 25.9 ESE 8 10 1008.1 - 0.0 - - 10 - - - -
04/02:00pm 25.3 SE 8 11 1008.5 - 0.0 - - 10 - - - -
04/01:30pm 26.3 ESE 8 11 1008.9 - 0.0 - - 10 - - - -
04/01:00pm 27.7 E 7 10 1009.3 - 0.0 - - 10 - - - -
04/12:30pm 27.0 ESE 6 9 1009.5 - 0.0 - - 10 - - - -
04/12:00pm 25.5 ESE 5 8 1010.1 - 0.0 - - 10 - - - -
04/11:30am 24.0 ESE 5 8 1010.6 - 0.0 - - 10 - - - -
04/11:00am 22.9 ENE 5 7 1010.9 - 0.0 - - 10 - - - -
04/10:30am 20.9 NNE 4 6 1011.4 - 0.0 - - 10 - - - -
04/10:00am 20.1 NE 4 7 1011.7 - 0.0 - - 10 - - - -
04/09:30am 19.1 E 3 5 1011.7 - 0.0 - - 10 - - - -
04/09:00am 17.2 NE 3 4 1012.3 - 0.0 - - 10 - - - -
04/08:30am 15.4 NE 2 4 1012.5 - 0.0 - - 10 - - - -
04/08:00am 13.2 N 3 4 1012.6 - 0.0 - - 10 - - - -
04/07:30am 11.9 NNW 4 5 1012.8 - 0.0 - - - - - - -
04/07:00am 9.9 NNW 5 6 1013.0 - 0.0 - Partly cloudy - - - - -
04/06:57am 9.9 NNW 5 6 1013.1 - 0.0 - Partly cloudy - - - - -
04/06:30am 8.9 NW 4 5 1013.1 - 0.0 - Partly cloudy - - - - -
04/06:00am 7.3 NNW 2 5 1013.3 - 0.0 - Mostly cloudy - - - - -
04/05:45am 7.6 NNW 4 5 1013.1 - 0.0 - Partly cloudy - - - - -
04/05:30am 8.5 NW 2 3 1013.1 - 0.0 - Partly cloudy - - - - -
04/05:00am 8.4 NNW 4 5 1012.9 - 0.0 - Partly cloudy - - - - -
04/04:34am 8.4 NNW 3 4 1012.6 - 0.0 - Partly cloudy - - - - -
04/04:30am 8.1 NNW 3 4 1012.6 - 0.0 - Partly cloudy - - - - -
04/04:13am 8.5 N 3 5 1012.8 - 0.0 - Partly cloudy - - - - -
04/04:00am 9.7 NNE 3 4 1012.9 - 0.0 - - - - - - -
04/03:30am 8.9 CALM 0 0 1013.2 - 0.0 - - - - - - -
04/03:00am 11.0 E 5 5 1013.3 - 0.0 - - - - - - -
04/02:30am 10.5 NE 4 5 1013.8 - 0.0 - - - - - - -
04/02:00am 11.6 NNE 4 5 1014.4 - 0.0 - - - - - - -
04/01:30am 12.3 ENE 5 6 1014.7 - 0.0 - - 10 - - - -
04/01:00am 12.5 ENE 5 6 1015.1 - 0.0 - - 10 - - - -
04/12:30am 12.4 NE 4 5 1015.8 - 0.0 - - 10 - - - -
04/12:00am 13.0 NE 6 7 1015.8 - 0.0 - - 10 - - - -
 
Date/Time
EDT
Temp
°C
Wind Pressure Rain since
9am
mm
Weather Cloud Vis
km
Sea
Height
m
Swell
Dir  Spd
kts
Gust
kts
hPa Trend Height
m
Period
s
Dir
03/11:30pm 13.0 NE 4 5 1016.2 - 0.0 - - 10 - - - -
03/11:00pm 13.6 ENE 5 6 1016.3 - 0.0 - - 10 - - - -
03/10:30pm 13.7 E 5 6 1016.4 - 0.0 - - 10 - - - -
03/10:00pm 13.5 ESE 5 6 1016.3 - 0.0 - - 10 - - - -
03/09:30pm 13.8 ESE 6 6 1016.4 - 0.0 - - 10 - - - -
03/09:00pm 14.2 ESE 6 8 1016.2 - 0.0 - - 10 - - - -
03/08:30pm 15.0 ESE 7 9 1016.0 - 0.0 - - 10 - - - -
03/08:00pm 15.7 ESE 8 10 1015.9 - 0.0 - - 10 - - - -
03/07:30pm 16.7 E 8 10 1015.8 - 0.0 - - 10 - - - -
03/07:00pm 17.3 E 10 14 1015.3 - 0.0 - - 10 - - - -
03/06:30pm 17.5 ESE 11 14 1015.2 - 0.0 - - 10 - - - -
03/06:00pm 17.8 ESE 11 15 1015.1 - 0.0 - - 10 - - - -
03/05:30pm 17.9 ESE 11 15 1015.3 - 0.0 - - 10 - - - -
03/05:00pm 18.5 ESE 12 16 1015.2 - 0.0 - - 10 - - - -
03/04:30pm 18.0 SE 13 17 1015.2 - 0.0 - - 10 - - - -
03/04:00pm 18.8 SE 13 17 1015.1 - 0.0 - - 10 - - - -
03/03:30pm 18.6 ESE 11 16 1015.2 - 0.0 - - 10 - - - -
03/03:00pm 18.4 ESE 11 15 1015.3 - 0.0 - Mostly clear 10 - - - -
03/02:30pm 18.9 SE 11 16 1015.4 - 0.0 - - 10 - - - -
03/02:00pm 18.1 ESE 11 15 1015.5 - 0.0 - - 10 - - - -
03/01:30pm 18.6 SE 12 17 1015.6 - 0.0 - Partly cloudy 10 - - - -
03/01:00pm 18.8 ESE 11 17 1015.6 - 0.0 - Partly cloudy 10 - - - -
03/12:30pm 19.6 SE 10 14 1015.8 - 0.0 - Cloudy 10 - - - -
03/12:00pm 18.7 SE 7 10 1016.0 - 0.0 - Mostly cloudy 10 - - - -
03/11:30am 19.1 ESE 10 14 1015.7 - 0.0 - Cloudy 10 - - - -
03/11:00am 17.8 ESE 7 11 1015.9 - 0.0 - Partly cloudy 10 - - - -
03/10:30am 17.3 ENE 6 12 1016.1 - 0.0 - Partly cloudy 10 - - - -
03/10:00am 17.3 ENE 7 9 1016.2 - 0.0 - Cloudy 10 - - - -
03/09:30am 16.4 E 7 10 1016.3 - 0.0 - Cloudy 10 - - - -
03/09:00am 15.9 NE 5 8 1016.4 - 0.0 - Cloudy 10 - - - -
03/08:30am 15.8 SE 5 7 1016.4 - 0.0 - Cloudy 10 - - - -
03/08:00am 15.3 SSE 3 5 1016.2 - 0.0 - Partly cloudy 10 - - - -
03/07:30am 14.5 SSW 4 5 1016.1 - 0.0 - Cloudy 10 - - - -
03/07:00am 13.9 S 3 5 1016.0 - 0.0 - Cloudy 10 - - - -
03/06:30am 13.2 SSW 4 5 1015.8 - 0.0 - Cloudy 10 - - - -
03/06:00am 12.9 SSW 4 5 1015.7 - 0.0 - Cloudy 10 - - - -

Other Formats:

Comma delimited format used in spreadsheet applications
http://www.bom.gov.au/fwo/IDV60701/IDV60701.94912.axf

JavaScript Object Notation format (JSON) in row-major order
http://www.bom.gov.au/fwo/IDV60701/IDV60701.94912.json